ICT,Max TemperatureF,Mean TemperatureF,Min TemperatureF,Max Dew PointF,MeanDew PointF,Min DewpointF,Max Humidity, Mean Humidity, Min Humidity, Max Sea Level PressureIn, Mean Sea Level PressureIn, Min Sea Level PressureIn, Max VisibilityMiles, Mean VisibilityMiles, Min VisibilityMiles, Max Wind SpeedMPH, Mean Wind SpeedMPH, Max Gust SpeedMPH,PrecipitationIn, CloudCover, Events, WindDirDegrees
2013-10-1,87,82,78,77,75,72,89,74,58,29.83,29.72,29.65,6,6,5,1,0,,0.00,3,,100
2013-10-2,89,81,73,77,75,72,100,85,62,29.86,29.80,29.71,6,5,3,12,1,32,0.00,4,Rain-Thunderstorm,287
2013-10-3,82,78,75,77,76,75,100,93,84,29.86,29.78,29.68,6,5,2,12,4,,0.00,8,Rain-Thunderstorm,295
2013-10-4,82,80,77,77,75,75,94,91,79,29.80,29.74,29.65,6,5,4,9,3,,0.00,6,Rain,19
2013-10-5,84,80,77,75,75,73,94,86,70,29.77,29.71,29.62,6,6,5,17,5,,0.00,6,Rain-Thunderstorm,81
2013-10-6,86,82,77,77,75,73,94,83,70,29.77,29.72,29.65,6,6,3,17,8,,0.00,5,Rain,107
2013-10-7,87,82,77,77,75,73,94,81,66,29.83,29.76,29.68,6,6,3,10,7,,0.00,3,Rain-Thunderstorm,128
2013-10-8,86,82,77,77,75,73,94,82,70,29.86,29.78,29.71,6,6,4,10,3,,0.00,5,Rain-Thunderstorm,295
2013-10-9,87,81,75,77,73,70,94,72,55,29.86,29.80,29.74,6,6,4,14,3,,0.00,3,Rain-Thunderstorm,75
2013-10-10,89,84,78,77,73,70,89,69,58,29.89,29.82,29.77,6,6,6,10,1,,0.00,1,,283
2013-10-11,89,84,78,75,74,72,83,70,58,29.86,29.79,29.71,6,6,6,6,0,,0.00,2,,360
2013-10-12,87,82,77,77,75,73,89,78,66,29.83,29.76,29.68,6,6,3,12,3,17,0.00,2,Rain,21
2013-10-13,86,80,75,77,75,72,94,80,70,29.80,29.75,29.68,6,6,2,15,3,,0.00,3,Rain,190
2013-10-14,89,84,78,79,76,72,94,76,62,29.77,29.71,29.62,6,6,5,10,4,,0.00,3,,304
2013-10-15,86,80,75,77,76,73,100,82,70,29.74,29.68,29.62,6,5,3,16,7,20,0.00,6,Rain,301
2013-10-16,82,78,75,77,75,73,94,87,74,29.83,29.75,29.68,6,6,4,20,7,,0.00,6,Rain,244
2013-10-17,87,82,77,77,75,73,94,78,62,29.89,29.81,29.74,6,6,6,8,5,,0.00,3,,119
2013-10-18,86,82,77,77,76,73,94,83,70,29.89,29.84,29.74,6,6,4,13,4,,0.00,3,Rain-Thunderstorm,96
2013-10-19,86,82,77,77,75,72,94,81,70,29.95,29.87,29.80,6,6,5,8,3,13,0.00,3,Rain-Thunderstorm,77
2013-10-20,89,84,78,77,75,72,89,79,58,29.89,29.83,29.77,6,6,6,12,0,,0.00,3,Rain-Thunderstorm,110
2013-10-21,87,82,77,77,75,73,94,83,62,29.86,29.83,29.77,6,6,5,8,2,,0.00,4,Rain,342
2013-10-22,87,82,77,79,76,73,94,78,62,29.89,29.84,29.77,6,6,6,8,3,,0.00,2,Rain,274
2013-10-23,87,82,78,79,75,72,94,78,58,29.92,29.85,29.80,6,6,6,9,4,,0.00,3,,197
2013-10-24,86,82,78,75,73,72,89,72,62,29.89,29.83,29.74,6,6,6,10,4,,0.00,2,,169
2013-10-25,87,82,77,75,73,70,83,75,55,29.92,29.86,29.80,6,5,3,10,4,,0.00,1,Rain,29
2013-10-26,84,80,75,75,72,68,89,76,62,29.98,29.90,29.83,6,5,4,8,5,,0.00,5,,352
2013-10-27,86,80,75,75,72,68,94,77,62,29.95,29.89,29.83,6,5,3,16,4,,0.00,3,Rain,162
2013-10-28,86,82,77,77,73,70,94,74,58,29.95,29.89,29.83,6,6,4,12,4,,0.00,2,,147
2013-10-29,87,82,78,79,75,72,94,78,62,29.98,29.90,29.83,6,5,2,6,2,,0.00,2,Rain,160
2013-10-30,89,84,78,79,74,70,94,74,55,29.92,29.86,29.80,6,6,5,7,3,,0.00,2,,211
2013-10-31,89,84,78,77,74,70,89,73,52,29.95,29.87,29.80,6,6,5,10,5,,0.00,2,,143